Time;durP1;ratioP1;P1;durP2;ratioP2;P2;SDS_P1;SDS_P2;PMS_P1;PMS_P2;Temp;Humidity;BMP_temperature;BMP_pressure;BME280_temperature;BME280_humidity;BME280_pressure;Samples;Min_cycle;Max_cycle;Signal;HPM_P1;HPM_P2
2022/11/12 00:01:57;;;;;;;1999.90;999.90;;;;;;;7.01;100.00;99629.91;5100826;28;20066;-75
2022/11/12 00:04:22;;;;;;;1999.90;999.90;;;;;;;6.95;100.00;99620.78;5102969;28;20051;-76
2022/11/12 00:06:50;;;;;;;1999.90;999.90;;;;;;;6.91;100.00;99624.19;5099257;28;20076;-75
2022/11/12 00:09:18;;;;;;;1999.90;999.90;;;;;;;6.94;100.00;99632.72;5102593;28;20046;-75
2022/11/12 00:11:46;;;;;;;1999.90;999.90;;;;;;;6.92;100.00;99623.94;5100978;28;20024;-75
2022/11/12 00:14:11;;;;;;;1999.90;999.90;;;;;;;7.02;100.00;99620.69;5100766;28;20032;-76
2022/11/12 00:16:37;;;;;;;1999.90;999.90;;;;;;;6.98;100.00;99617.59;5100516;28;20088;-76
2022/11/12 00:19:02;;;;;;;1999.90;999.90;;;;;;;7.03;100.00;99621.50;5100730;28;20059;-75
2022/11/12 00:21:27;;;;;;;1999.90;999.90;;;;;;;7.09;100.00;99612.44;5102453;28;20102;-74
2022/11/12 00:23:52;;;;;;;1999.90;999.90;;;;;;;7.12;100.00;99607.34;5099616;28;20127;-74
2022/11/12 00:26:18;;;;;;;1999.90;999.90;;;;;;;7.11;100.00;99613.03;5102817;28;20110;-74
2022/11/12 00:28:43;;;;;;;1999.90;999.90;;;;;;;7.17;100.00;99615.66;5097882;28;20050;-75
2022/11/12 00:31:10;;;;;;;1999.90;999.90;;;;;;;7.13;100.00;99621.78;5097637;28;20035;-76
2022/11/12 00:33:39;;;;;;;1999.90;999.90;;;;;;;7.17;100.00;99620.28;5096160;28;20069;-75
2022/11/12 00:36:05;;;;;;;1999.90;999.90;;;;;;;7.18;100.00;99619.19;5101343;28;20078;-75
2022/11/12 00:38:30;;;;;;;1999.90;999.90;;;;;;;7.14;100.00;99616.09;5092238;28;20024;-75
2022/11/12 00:40:58;;;;;;;1999.90;999.90;;;;;;;7.03;100.00;99603.31;5092670;28;20463;-75
2022/11/12 00:43:24;;;;;;;1999.90;999.90;;;;;;;7.14;100.00;99618.81;5092139;28;20472;-75
2022/11/12 00:45:49;;;;;;;1999.90;999.90;;;;;;;7.12;100.00;99620.97;5092361;28;20047;-76
2022/11/12 00:48:14;;;;;;;1999.90;999.90;;;;;;;7.16;100.00;99613.16;5092278;28;20527;-75
2022/11/12 00:50:40;;;;;;;1999.90;999.90;;;;;;;7.07;100.00;99618.13;5092011;28;20748;-75
2022/11/12 00:53:05;;;;;;;1999.90;999.90;;;;;;;7.09;100.00;99613.25;5092150;28;20464;-76
2022/11/12 00:55:30;;;;;;;1999.90;999.90;;;;;;;7.09;100.00;99613.25;5074134;28;20100;-75
2022/11/12 00:57:58;;;;;;;1999.90;999.90;;;;;;;7.07;100.00;99603.69;5092204;28;20024;-75
2022/11/12 01:00:24;;;;;;;1999.90;999.90;;;;;;;7.12;100.00;99611.97;5094009;28;20060;-79
2022/11/12 01:02:49;;;;;;;1999.90;999.90;;;;;;;7.09;100.00;99602.38;5118084;28;20019;-82
2022/11/12 01:05:14;;;;;;;1999.90;999.90;;;;;;;7.09;100.00;99593.38;5117830;28;20016;-77
2022/11/12 01:07:40;;;;;;;1999.90;999.90;;;;;;;7.06;100.00;99597.41;5099958;28;20036;-82
2022/11/12 01:10:07;;;;;;;1999.90;999.90;;;;;;;7.12;100.00;99596.47;5112845;28;20054;-75
2022/11/12 01:12:33;;;;;;;1999.90;999.90;;;;;;;7.10;100.00;99592.31;5113069;28;20024;-74
2022/11/12 01:14:59;;;;;;;1999.90;999.90;;;;;;;7.02;100.00;99595.38;5112530;28;20036;-74
2022/11/12 01:17:24;;;;;;;1999.90;999.90;;;;;;;6.99;100.00;99592.06;5112416;28;20043;-75
2022/11/12 01:19:49;;;;;;;1999.90;999.90;;;;;;;7.02;100.00;99585.31;5113400;28;20031;-75
2022/11/12 01:22:15;;;;;;;1999.90;999.90;;;;;;;6.94;100.00;99583.78;5113701;28;20373;-76
2022/11/12 01:24:40;;;;;;;1999.90;999.90;;;;;;;6.87;100.00;99583.03;5113538;28;20039;-75
2022/11/12 01:27:05;;;;;;;1999.90;999.90;;;;;;;6.81;100.00;99574.97;5095377;28;20080;-75
2022/11/12 01:29:31;;;;;;;1999.90;999.90;;;;;;;6.85;100.00;99578.88;5113706;28;20023;-75
2022/11/12 01:31:56;;;;;;;1999.90;999.90;;;;;;;6.82;100.00;99587.50;5113581;28;20123;-75
2022/11/12 01:34:22;;;;;;;1999.90;999.90;;;;;;;6.76;100.00;99583.81;5113348;28;20026;-76
2022/11/12 01:36:47;;;;;;;1999.90;999.90;;;;;;;6.73;100.00;99592.44;5113407;28;20032;-75
2022/11/12 01:39:12;;;;;;;1999.90;999.90;;;;;;;6.79;100.00;99577.09;5113402;28;20023;-75
2022/11/12 01:41:40;;;;;;;1999.90;999.90;;;;;;;6.82;100.00;99576.63;5115935;28;20032;-77
2022/11/12 01:44:08;;;;;;;1999.90;999.90;;;;;;;6.79;100.00;99574.38;5119884;28;20032;-76
2022/11/12 01:46:48;;;;;;;1999.90;999.90;;;;;;;6.88;100.00;99578.44;5112710;28;20068;-75
2022/11/12 01:49:23;;;;;;;1999.90;999.90;;;;;;;6.84;100.00;99572.63;5113163;28;20069;-75
2022/11/12 01:51:51;;;;;;;1999.90;999.90;;;;;;;6.87;100.00;99569.44;5112897;28;20030;-75
2022/11/12 01:54:19;;;;;;;1999.90;999.90;;;;;;;6.89;100.00;99575.47;5112882;28;20023;-75
2022/11/12 01:56:45;;;;;;;1999.90;999.90;;;;;;;6.84;100.00;99567.19;5112835;28;20507;-76
2022/11/12 01:59:16;;;;;;;1999.90;999.90;;;;;;;6.93;100.00;99571.22;5112839;28;20040;-75
2022/11/12 02:01:41;;;;;;;1999.90;999.90;;;;;;;6.98;100.00;99573.25;5112815;28;20142;-75
2022/11/12 02:04:07;;;;;;;1999.90;999.90;;;;;;;7.02;100.00;99563.56;5112712;28;20023;-76
2022/11/12 02:06:34;;;;;;;1999.90;999.90;;;;;;;7.05;100.00;99567.72;5112369;28;20415;-77
2022/11/12 02:09:00;;;;;;;1999.90;999.90;;;;;;;7.11;100.00;99561.34;5112584;28;20038;-76
2022/11/12 02:11:25;;;;;;;1999.90;999.90;;;;;;;7.12;100.00;99557.53;5113015;28;20053;-76
2022/11/12 02:14:00;;;;;;;1999.90;999.90;;;;;;;7.19;100.00;99563.72;5112234;28;20121;-76
2022/11/12 02:16:35;;;;;;;1999.90;999.90;;;;;;;7.20;100.00;99559.94;5112818;28;20050;-75
2022/11/12 02:19:01;;;;;;;1999.90;999.90;;;;;;;7.12;100.00;99552.09;5112317;28;20119;-75
2022/11/12 02:21:27;;;;;;;1999.90;999.90;;;;;;;7.08;100.00;99556.38;5112352;28;20032;-75
2022/11/12 02:24:16;;;;;;;1999.90;999.90;;;;;;;7.14;100.00;99550.81;5112379;28;20082;-75
2022/11/12 02:26:50;;;;;;;1999.90;999.90;;;;;;;7.09;100.00;99545.25;5098756;28;20367;-76
2022/11/12 02:29:16;;;;;;;1999.90;999.90;;;;;;;7.07;100.00;99541.94;5093912;28;20388;-75
2022/11/12 02:31:42;;;;;;;1999.90;999.90;;;;;;;6.98;100.00;99548.78;5112102;28;20028;-76
2022/11/12 02:34:07;;;;;;;1999.90;999.90;;;;;;;6.91;100.00;99556.19;5112234;28;20038;-76
2022/11/12 02:36:32;;;;;;;1999.90;999.90;;;;;;;6.96;100.00;99549.00;5111952;28;20035;-76
2022/11/12 02:38:58;;;;;;;1999.90;999.90;;;;;;;6.92;100.00;99536.91;5111974;28;20160;-75
2022/11/12 02:41:23;;;;;;;1999.90;999.90;;;;;;;6.97;100.00;99537.06;5092909;28;20020;-76
2022/11/12 02:43:49;;;;;;;1999.90;999.90;;;;;;;7.02;100.00;99530.91;5091574;28;20387;-75
2022/11/12 02:46:15;;;;;;;1999.90;999.90;;;;;;;6.94;100.00;99523.94;5091730;28;20085;-75
2022/11/12 02:48:40;;;;;;;1999.90;999.90;;;;;;;7.00;100.00;99527.59;5091389;28;20020;-76
2022/11/12 02:51:06;;;;;;;1999.90;999.90;;;;;;;6.99;100.00;99523.22;5091473;28;20028;-74
2022/11/12 02:53:31;;;;;;;1999.90;999.90;;;;;;;6.97;100.00;99523.47;5091495;28;20049;-75
2022/11/12 02:55:58;;;;;;;1999.90;999.90;;;;;;;7.00;100.00;99533.03;5091344;28;20028;-75
2022/11/12 02:58:23;;;;;;;1999.90;999.90;;;;;;;6.96;100.00;99529.97;5072887;28;20135;-75
2022/11/12 03:00:49;;;;;;;1999.90;999.90;;;;;;;7.06;100.00;99534.00;5091146;28;20162;-75
2022/11/12 03:03:14;;;;;;;1999.90;999.90;;;;;;;7.01;100.00;99529.28;5091282;28;20028;-75
2022/11/12 03:05:40;;;;;;;1999.90;999.90;;;;;;;7.00;100.00;99516.72;5091154;28;20032;-75
2022/11/12 03:08:07;;;;;;;1999.90;999.90;;;;;;;6.97;100.00;99520.75;5091212;28;20075;-75
2022/11/12 03:10:35;;;;;;;1999.90;999.90;;;;;;;6.97;100.00;99523.47;5091258;28;20035;-75
2022/11/12 03:13:01;;;;;;;1999.90;999.90;;;;;;;6.91;100.00;99529.00;5091019;28;20028;-75
2022/11/12 03:15:28;;;;;;;1999.90;999.90;;;;;;;6.84;100.00;99522.81;5091725;28;20039;-75
2022/11/12 03:17:53;;;;;;;1999.90;999.90;;;;;;;6.80;100.00;99537.94;5091117;28;20031;-75
2022/11/12 03:20:19;;;;;;;1999.90;999.90;;;;;;;6.83;100.00;99532.03;5090826;28;20445;-75
2022/11/12 03:23:06;;;;;;;1999.90;999.90;;;;;;;6.82;100.00;99524.97;5090939;28;20020;-75
2022/11/12 03:25:32;;;;;;;1999.90;999.90;;;;;;;6.67;100.00;99521.84;5090857;28;20516;-76
2022/11/12 03:27:59;;;;;;;1999.90;999.90;;;;;;;6.67;100.00;99522.66;5090831;28;20115;-75
2022/11/12 03:30:29;;;;;;;1999.90;999.90;;;;;;;6.69;100.00;99519.72;5090744;28;20481;-74
2022/11/12 03:32:55;;;;;;;1999.90;999.90;;;;;;;6.67;100.00;99519.13;5090839;28;20892;-75
2022/11/12 03:35:20;;;;;;;1999.90;999.90;;;;;;;6.64;100.00;99506.00;5090750;28;20035;-75
2022/11/12 03:37:46;;;;;;;1999.90;999.90;;;;;;;6.66;100.00;99514.75;5090689;28;20039;-75
2022/11/12 03:40:11;;;;;;;1999.90;999.90;;;;;;;6.72;100.00;99508.38;5090737;28;20504;-75
2022/11/12 03:42:37;;;;;;;1999.90;999.90;;;;;;;6.72;100.00;99506.50;5090453;28;20035;-75
2022/11/12 03:45:02;;;;;;;1999.90;999.90;;;;;;;6.69;100.00;99497.97;5090883;28;20028;-75
2022/11/12 03:47:28;;;;;;;1999.90;999.90;;;;;;;6.72;100.00;99497.50;5091023;28;20477;-75
2022/11/12 03:49:53;;;;;;;1999.90;999.90;;;;;;;6.70;100.00;99499.63;5091105;28;20140;-76
2022/11/12 03:52:18;;;;;;;1999.90;999.90;;;;;;;6.61;100.00;99490.16;5094008;28;20488;-79
2022/11/12 03:54:44;;;;;;;1999.90;999.90;;;;;;;6.57;100.00;99491.66;5095753;28;20114;-74
2022/11/12 03:57:09;;;;;;;1999.90;999.90;;;;;;;6.56;100.00;99490.00;5090727;28;20024;-75
2022/11/12 03:59:34;;;;;;;1999.90;999.90;;;;;;;6.52;100.00;99469.78;5090407;28;20020;-76
2022/11/12 04:02:00;;;;;;;1999.90;999.90;;;;;;;6.59;100.00;99494.97;5090569;28;20029;-75
2022/11/12 04:08:34;;;;;;;1999.90;999.90;;;;;;;6.56;100.00;99488.13;5090394;28;20388;-74
2022/11/12 04:09:54;;;;;;;1999.90;999.90;;;;;;;6.57;100.00;99478.91;5096970;28;20089;-75
2022/11/12 04:15:04;;;;;;;1999.90;999.90;;;;;;;6.63;100.00;99475.25;5103013;28;20495;-75
2022/11/12 04:22:57;;;;;;;1999.90;999.90;;;;;;;6.46;100.00;99488.66;5093902;28;20038;-75
2022/11/12 04:28:06;;;;;;;1999.90;999.90;;;;;;;6.47;100.00;99487.63;5113027;28;20075;-75
2022/11/12 04:30:32;;;;;;;1999.90;999.90;;;;;;;6.51;100.00;99489.88;5095994;28;20051;-75
2022/11/12 04:32:57;;;;;;;1999.90;999.90;;;;;;;6.50;100.00;99489.03;5113955;28;20020;-75
2022/11/12 04:35:26;;;;;;;1999.90;999.90;;;;;;;6.44;100.00;99490.81;5114125;28;20023;-75
2022/11/12 04:37:51;;;;;;;1999.90;999.90;;;;;;;6.30;100.00;99470.28;5114048;28;20152;-75
2022/11/12 04:45:51;;;;;;;;;;;;;;;6.43;100.00;99480.97;5115107;28;20518;-76
2022/11/12 04:48:16;;;;;;;1999.90;999.90;;;;;;;6.40;100.00;99476.00;5114108;28;19916;-75
2022/11/12 04:50:45;;;;;;;1999.90;999.90;;;;;;;6.35;100.00;99480.47;5114286;28;20047;-76
2022/11/12 04:53:10;;;;;;;1999.90;999.90;;;;;;;6.34;100.00;99468.78;5113732;28;20468;-75
2022/11/12 04:55:36;;;;;;;1999.90;999.90;;;;;;;6.28;100.00;99472.41;5113826;28;20045;-75
2022/11/12 04:58:01;;;;;;;1999.90;999.90;;;;;;;6.22;100.00;99470.63;5113461;28;20027;-76
2022/11/12 05:00:27;;;;;;;1999.90;999.90;;;;;;;6.28;100.00;99475.13;5095479;28;20395;-76
2022/11/12 05:02:52;;;;;;;1999.90;999.90;;;;;;;6.24;100.00;99473.09;5109519;28;20081;-76
2022/11/12 05:05:18;;;;;;;1999.90;999.90;;;;;;;6.22;100.00;99470.63;5093310;28;20110;-75
2022/11/12 05:07:43;;;;;;;1999.90;999.90;;;;;;;6.30;100.00;99478.44;5090959;28;20079;-76
2022/11/12 05:10:08;;;;;;;1999.90;999.90;;;;;;;6.27;100.00;99465.31;5113221;28;20043;-75
2022/11/12 05:12:34;;;;;;;1999.90;999.90;;;;;;;6.27;100.00;99462.59;5113838;28;20024;-75
2022/11/12 05:15:00;;;;;;;1999.90;999.90;;;;;;;6.28;100.00;99469.69;5113549;28;20043;-75
2022/11/12 05:17:25;;;;;;;1999.90;999.90;;;;;;;6.32;100.00;99462.75;5113651;28;20027;-75
2022/11/12 05:19:52;;;;;;;1999.90;999.90;;;;;;;6.21;100.00;99458.09;5113229;28;20039;-75
2022/11/12 05:22:17;;;;;;;1999.90;999.90;;;;;;;6.23;100.00;99463.31;5112394;28;20035;-76
2022/11/12 05:24:43;;;;;;;1999.90;999.90;;;;;;;6.27;100.00;99465.31;5095039;28;20027;-76
2022/11/12 05:27:12;;;;;;;1999.90;999.90;;;;;;;6.25;100.00;99453.88;5113318;28;20031;-76
2022/11/12 05:29:37;;;;;;;1999.90;999.90;;;;;;;6.26;100.00;99460.97;5112961;28;20119;-75
2022/11/12 05:32:04;;;;;;;1999.90;999.90;;;;;;;6.26;100.00;99455.53;5113173;28;20450;-75
2022/11/12 05:34:29;;;;;;;1999.90;999.90;;;;;;;6.27;100.00;99454.44;5113236;28;20028;-74
2022/11/12 05:36:55;;;;;;;1999.90;999.90;;;;;;;6.31;100.00;99454.81;5113601;28;20472;-76
2022/11/12 05:39:21;;;;;;;1999.90;999.90;;;;;;;6.21;100.00;99447.22;5114003;28;20062;-76
2022/11/12 05:41:46;;;;;;;1999.90;999.90;;;;;;;6.26;100.00;99455.53;5114927;28;20604;-76
2022/11/12 05:44:12;;;;;;;1999.90;999.90;;;;;;;6.22;100.00;99457.03;5114901;28;20027;-75
2022/11/12 05:46:37;;;;;;;1999.90;999.90;;;;;;;6.21;100.00;99463.53;5116160;28;20024;-76
2022/11/12 05:49:02;;;;;;;1999.90;999.90;;;;;;;6.16;100.00;99447.09;5118082;28;20055;-80
2022/11/12 05:51:28;;;;;;;1999.90;999.90;;;;;;;6.17;100.00;99439.78;5103658;28;20036;-79
2022/11/12 05:53:53;;;;;;;1999.90;999.90;;;;;;;6.23;100.00;99445.13;5094326;28;20428;-74
2022/11/12 05:56:18;;;;;;;1999.90;999.90;;;;;;;6.21;100.00;99432.81;5092734;28;20035;-75
2022/11/12 05:58:44;;;;;;;1999.90;999.90;;;;;;;6.36;100.00;99438.66;5092843;28;20042;-74
2022/11/12 06:01:09;;;;;;;1999.90;999.90;;;;;;;6.36;100.00;99431.31;5093510;28;20035;-76
2022/11/12 06:03:35;;;;;;;1999.90;999.90;;;;;;;6.35;100.00;99426.13;5096578;28;20441;-77
2022/11/12 06:06:00;;;;;;;1999.90;999.90;;;;;;;6.34;100.00;99436.16;5093015;28;20032;-76
2022/11/12 06:08:26;;;;;;;1999.90;999.90;;;;;;;6.34;100.00;99425.31;5092458;28;20434;-76
2022/11/12 06:10:52;;;;;;;1999.90;999.90;;;;;;;6.22;100.00;99427.16;5093683;28;21658;-76
2022/11/12 06:13:18;;;;;;;1999.90;999.90;;;;;;;6.21;100.00;99420.06;5105654;28;20074;-75
2022/11/12 06:15:43;;;;;;;1999.90;999.90;;;;;;;6.23;100.00;99438.84;5092213;28;20035;-77
2022/11/12 06:18:09;;;;;;;1999.90;999.90;;;;;;;6.19;100.00;99446.63;5091771;28;20028;-76
2022/11/12 06:20:34;;;;;;;1999.90;999.90;;;;;;;6.02;100.00;99445.59;5091823;28;20032;-77
2022/11/12 06:23:00;;;;;;;1999.90;999.90;;;;;;;6.05;100.00;99437.00;5091620;28;20051;-76
2022/11/12 06:25:26;;;;;;;1999.90;999.90;;;;;;;6.14;100.00;99449.19;5091787;28;20032;-76
2022/11/12 06:27:51;;;;;;;1999.90;999.90;;;;;;;6.17;100.00;99450.66;5091579;28;20020;-76
2022/11/12 06:30:17;;;;;;;1999.90;999.90;;;;;;;6.15;100.00;99441.88;5104474;28;20459;-75
2022/11/12 06:32:49;;;;;;;1999.90;999.90;;;;;;;6.15;100.00;99431.00;5111635;28;20034;-76
2022/11/12 06:35:16;;;;;;;1999.90;999.90;;;;;;;6.23;100.00;99439.69;5111721;28;20501;-76
2022/11/12 06:37:41;;;;;;;1999.90;999.90;;;;;;;6.25;100.00;99443.00;5111537;28;20024;-76
2022/11/12 06:40:07;;;;;;;1999.90;999.90;;;;;;;6.14;100.00;99435.63;5111774;28;20522;-75
2022/11/12 06:42:33;;;;;;;1999.90;999.90;;;;;;;6.19;100.00;99437.66;5111822;28;20107;-75
2022/11/12 06:44:58;;;;;;;1999.90;999.90;;;;;;;6.28;100.00;99434.38;5111767;28;20110;-76
2022/11/12 06:47:24;;;;;;;1999.90;999.90;;;;;;;6.20;100.00;99429.25;5111947;28;20038;-76
2022/11/12 06:49:49;;;;;;;1999.90;999.90;;;;;;;6.33;100.00;99439.94;5111755;28;20456;-76
2022/11/12 06:52:15;;;;;;;1999.90;999.90;;;;;;;6.39;100.00;99436.28;5104210;28;20430;-83
2022/11/12 06:54:41;;;;;;;1999.90;999.90;;;;;;;6.36;100.00;99441.38;5104585;28;20028;-88
2022/11/12 06:57:06;;;;;;;1999.90;999.90;;;;;;;6.35;100.00;99448.72;5100501;28;20477;-84
2022/11/12 06:59:31;;;;;;;1999.90;999.90;;;;;;;6.35;100.00;99447.88;5102263;28;20024;-84
2022/11/12 07:01:57;;;;;;;1999.90;999.90;;;;;;;6.32;100.00;99443.75;5100413;28;20037;-81
2022/11/12 07:04:25;;;;;;;1999.90;999.90;;;;;;;6.40;100.00;99457.00;5107821;28;20028;-84
2022/11/12 07:06:51;;;;;;;1999.90;999.90;;;;;;;6.33;100.00;99461.69;5099445;28;20123;-75
2022/11/12 07:09:16;;;;;;;1999.90;999.90;;;;;;;6.28;100.00;99463.44;5096097;28;20119;-76
2022/11/12 07:11:42;;;;;;;1999.90;999.90;;;;;;;6.21;100.00;99452.66;5097112;28;20039;-75
2022/11/12 07:14:07;;;;;;;1999.90;999.90;;;;;;;6.28;100.00;99447.13;5111138;28;20450;-76
2022/11/12 07:16:33;;;;;;;1999.90;999.90;;;;;;;6.31;100.00;99436.63;5111160;28;20627;-75
2022/11/12 07:18:58;;;;;;;1999.90;999.90;;;;;;;6.50;100.00;99423.81;5105583;28;20533;-76
2022/11/12 07:21:24;;;;;;;1999.90;999.90;;;;;;;6.58;100.00;99434.34;5095988;28;20471;-75
2022/11/12 07:23:49;;;;;;;1999.90;999.90;;;;;;;6.66;100.00;99442.16;5110912;28;20088;-76
2022/11/12 07:26:20;;;;;;;1999.90;999.90;;;;;;;6.79;100.00;99450.13;5110947;28;20507;-76
2022/11/12 07:28:47;;;;;;;1999.90;999.90;;;;;;;6.82;100.00;99440.66;5090520;28;20121;-75
2022/11/12 07:31:14;;;;;;;1999.90;999.90;;;;;;;6.93;100.00;99445.28;5091212;28;20124;-75
2022/11/12 07:33:41;;;;;;;1999.90;999.90;;;;;;;6.86;100.00;99450.81;5103224;28;20023;-75
2022/11/12 07:36:11;;;;;;;1999.90;999.90;;;;;;;6.85;100.00;99435.59;5101239;28;20505;-75
2022/11/12 07:38:38;;;;;;;1999.90;999.90;;;;;;;6.80;100.00;99437.34;5098879;28;20043;-76
2022/11/12 07:41:13;;;;;;;1999.90;999.90;;;;;;;6.72;100.00;99448.56;5099271;28;20491;-75
2022/11/12 07:43:39;;;;;;;1999.90;999.90;;;;;;;6.58;100.00;99458.00;5100001;28;20024;-75
2022/11/12 07:46:09;;;;;;;1999.90;999.90;;;;;;;6.56;100.00;99452.78;5097632;28;20012;-76
2022/11/12 07:48:34;;;;;;;1999.90;999.90;;;;;;;6.57;100.00;99449.00;5101369;28;20412;-77
2022/11/12 07:51:03;;;;;;;1999.90;999.90;;;;;;;6.52;100.00;99448.03;5101046;28;20028;-75
2022/11/12 07:53:29;;;;;;;1999.90;999.90;;;;;;;6.60;100.00;99447.72;5110273;28;20059;-75
2022/11/12 07:56:01;;;;;;;1999.90;999.90;;;;;;;6.63;100.00;99448.06;5096691;28;20056;-76
2022/11/12 07:58:29;;;;;;;1999.90;999.90;;;;;;;6.71;100.00;99445.00;5088057;28;20027;-75
2022/11/12 08:00:54;;;;;;;1999.90;999.90;;;;;;;6.76;100.00;99438.88;5096909;28;20020;-75
2022/11/12 08:03:20;;;;;;;1999.90;999.90;;;;;;;6.84;100.00;99447.53;5098448;28;20024;-79
2022/11/12 08:05:45;;;;;;;1999.90;999.90;;;;;;;6.79;100.00;99449.28;5098660;28;20026;-75
2022/11/12 08:08:11;;;;;;;1999.90;999.90;;;;;;;6.83;100.00;99445.84;5102070;28;20051;-79
2022/11/12 08:10:37;;;;;;;1999.90;999.90;;;;;;;6.85;100.00;99434.75;5100475;28;20468;-75
2022/11/12 08:13:03;;;;;;;1999.90;999.90;;;;;;;7.02;100.00;99446.56;5108296;28;20019;-76
2022/11/12 08:15:28;;;;;;;1999.90;999.90;;;;;;;7.06;100.00;99450.50;5101490;28;20054;-74
2022/11/12 08:17:53;;;;;;;1999.90;999.90;;;;;;;6.99;100.00;99445.16;5101268;28;20127;-75
2022/11/12 08:20:19;;;;;;;1999.90;999.90;;;;;;;6.90;100.00;99445.75;5101783;28;20078;-75
2022/11/12 08:22:44;;;;;;;1999.90;999.90;;;;;;;7.13;100.00;99447.66;5097171;28;20059;-74
2022/11/12 08:25:09;;;;;;;1999.90;999.90;;;;;;;7.20;100.00;99441.06;5103259;28;20031;-75
2022/11/12 08:27:38;;;;;;;1999.90;999.90;;;;;;;7.20;100.00;99443.78;5104398;28;20038;-75
2022/11/12 08:30:04;;;;;;;1999.90;999.90;;;;;;;7.30;100.00;99451.34;5104819;28;20027;-72
2022/11/12 08:32:29;;;;;;;1999.90;999.90;;;;;;;7.47;100.00;99447.66;5103282;28;20031;-75
2022/11/12 08:34:55;;;;;;;1999.90;999.90;;;;;;;7.58;100.00;99451.41;5098553;28;20020;-80
2022/11/12 08:37:20;;;;;;;1999.90;999.90;;;;;;;7.64;100.00;99446.94;5100260;28;20027;-74
2022/11/12 08:39:46;;;;;;;1999.90;999.90;;;;;;;7.67;100.00;99451.88;5102824;28;20028;-74
2022/11/12 08:42:11;;;;;;;1999.90;999.90;;;;;;;7.75;100.00;99444.16;5088682;28;20472;-78
2022/11/12 08:44:36;;;;;;;1999.90;999.90;;;;;;;7.76;100.00;99447.72;5101491;28;20043;-80
2022/11/12 08:47:02;;;;;;;1999.90;999.90;;;;;;;7.79;100.00;99449.97;5098959;28;20024;-78
2022/11/12 08:49:28;;;;;;;1999.90;999.90;;;;;;;7.79;100.00;99450.81;5111900;28;20097;-76
2022/11/12 08:51:54;;;;;;;1999.90;999.90;;;;;;;7.75;100.00;99456.94;5110301;28;20036;-81
2022/11/12 08:54:20;;;;;;;1999.90;999.90;;;;;;;7.53;100.00;99448.59;5111572;28;20020;-74
2022/11/12 08:56:46;;;;;;;1999.90;999.90;;;;;;;7.68;100.00;99454.34;5114026;28;20027;-78
2022/11/12 08:59:11;;;;;;;1999.90;999.90;;;;;;;7.72;100.00;99457.44;5102249;28;20093;-77
2022/11/12 09:01:36;;;;;;;1999.90;999.90;;;;;;;7.60;100.00;99451.19;5102601;28;20027;-76
2022/11/12 09:04:02;;;;;;;1999.90;999.90;;;;;;;7.76;100.00;99453.16;5110801;28;20550;-74
2022/11/12 09:06:27;;;;;;;1999.90;999.90;;;;;;;7.78;100.00;99462.75;5099934;28;20488;-75
2022/11/12 09:08:53;;;;;;;1999.90;999.90;;;;;;;7.75;100.00;99456.94;5111972;28;20035;-75
2022/11/12 09:11:18;;;;;;;1999.90;999.90;;;;;;;7.84;100.00;99466.41;5108524;28;20110;-75
2022/11/12 09:13:44;;;;;;;1999.90;999.90;;;;;;;7.92;100.00;99469.59;5101352;28;20027;-76
2022/11/12 09:16:09;;;;;;;1999.90;999.90;;;;;;;7.98;100.00;99470.53;5109569;28;20039;-76
2022/11/12 09:18:36;;;;;;;1999.90;999.90;;;;;;;7.99;100.00;99469.44;5108397;28;20071;-73
2022/11/12 09:21:04;;;;;;;1999.90;999.90;;;;;;;8.02;100.00;99460.78;5096387;28;20020;-74
2022/11/12 09:23:29;;;;;;;1999.90;999.90;;;;;;;8.02;100.00;99477.13;5107096;28;20063;-76
2022/11/12 09:25:56;;;;;;;1999.90;999.90;;;;;;;7.98;100.00;99478.72;5101408;28;20055;-75
2022/11/12 09:28:22;;;;;;;1999.90;999.90;;;;;;;8.01;100.00;99486.41;5106271;28;20115;-76
2022/11/12 09:30:49;;;;;;;1999.90;999.90;;;;;;;8.13;100.00;99484.47;5100689;28;20026;-76
2022/11/12 09:33:19;;;;;;;1999.90;999.90;;;;;;;8.12;100.00;99484.69;5101224;28;20024;-77
2022/11/12 09:35:45;;;;;;;1999.90;999.90;;;;;;;8.26;100.00;99484.19;5104067;28;20395;-78
2022/11/12 09:38:10;;;;;;;1999.90;999.90;;;;;;;8.25;100.00;99465.34;5101837;28;20428;-77
2022/11/12 09:40:51;;;;;;;1999.90;999.90;;;;;;;8.37;100.00;99486.06;5103671;28;20566;-77
2022/11/12 09:43:30;;;;;;;1999.90;999.90;;;;;;;8.34;100.00;99472.91;5104176;28;20044;-75
2022/11/12 09:45:59;;;;;;;1999.90;999.90;;;;;;;8.41;100.00;99476.34;5103530;28;20513;-74
2022/11/12 09:48:35;;;;;;;1999.90;999.90;;;;;;;8.48;100.00;99477.00;5099766;28;20032;-77
2022/11/12 09:51:25;;;;;;;1999.90;999.90;;;;;;;8.69;100.00;99485.56;5097020;28;20036;-74
2022/11/12 09:53:53;;;;;;;1999.90;999.90;;;;;;;8.93;100.00;99473.44;5088672;28;20079;-74
2022/11/12 09:56:20;;;;;;;1999.90;999.90;;;;;;;9.40;100.00;99477.47;5088680;28;20027;-75
2022/11/12 09:58:46;;;;;;;1999.90;999.90;;;;;;;9.61;100.00;99482.19;5111694;28;20032;-75
2022/11/12 10:01:21;;;;;;;1999.90;999.90;;;;;;;9.64;100.00;99481.66;5104754;28;20030;-75
2022/11/12 10:04:10;;;;;;;1999.90;999.90;;;;;;;9.27;100.00;99474.28;5105612;28;20395;-75
2022/11/12 10:07:01;;;;;;;1999.90;999.90;;;;;;;8.97;100.00;99471.88;5098193;28;20040;-74
2022/11/12 10:09:57;;;;;;;1999.90;999.90;;;;;;;8.89;100.00;99472.28;5091168;28;20123;-75
2022/11/12 10:12:54;;;;;;;1999.90;999.90;;;;;;;8.90;100.00;99474.75;5104899;28;20032;-75
2022/11/12 10:18:32;;;;;;;1999.90;999.90;;;;;;;9.14;100.00;99475.44;5102384;28;20498;-75
2022/11/12 10:21:15;;;;;;;1999.90;999.90;;;;;;;9.37;100.00;99464.31;5101528;28;20052;-72
2022/11/12 10:23:44;;;;;;;1999.90;999.90;;;;;;;9.61;100.00;99465.78;5100609;28;20023;-74
2022/11/12 10:26:13;;;;;;;1999.90;999.90;;;;;;;10.06;100.00;99457.34;5100768;28;20035;-74
2022/11/12 10:28:45;;;;;;;1999.90;999.90;;;;;;;10.41;100.00;99459.69;5106205;28;20435;-76
2022/11/12 10:31:13;;;;;;;1999.90;999.90;;;;;;;10.41;100.00;99448.75;5110614;28;20476;-76
2022/11/12 10:33:39;;;;;;;1999.90;999.90;;;;;;;10.68;100.00;99455.03;5101526;28;20035;-77
2022/11/12 10:36:29;;;;;;;1999.90;999.90;;;;;;;10.72;100.00;99447.97;5107569;28;20080;-75
2022/11/12 10:38:55;;;;;;;1999.90;999.90;;;;;;;10.60;100.00;99443.75;5114911;28;20564;-75
2022/11/12 10:41:24;;;;;;;1999.90;999.90;;;;;;;10.33;100.00;99446.50;5101593;28;20067;-78
2022/11/12 10:43:56;;;;;;;1999.90;999.90;;;;;;;10.11;100.00;99448.38;5102877;28;20036;-74
2022/11/12 10:46:36;;;;;;;1999.90;999.90;;;;;;;10.32;100.00;99433.88;5102161;28;20173;-74
2022/11/12 10:49:07;;;;;;;1999.90;999.90;;;;;;;10.48;100.00;99427.50;5100704;28;20023;-81
2022/11/12 10:51:35;;;;;;;1999.90;999.90;;;;;;;10.39;100.00;99428.22;5106474;28;20491;-78
2022/11/12 10:54:36;;;;;;;1999.90;999.90;;;;;;;10.25;100.00;99426.97;5106091;28;20027;-76
2022/11/12 10:57:23;;;;;;;1999.90;999.90;;;;;;;10.10;100.00;99430.31;5025601;28;20128;-74
2022/11/12 11:00:13;;;;;;;1999.90;999.90;;;;;;;10.13;100.00;99430.69;5094183;28;20126;-75
2022/11/12 11:02:47;;;;;;;1999.90;999.90;;;;;;;9.95;100.00;99411.84;5097632;28;20036;-78
2022/11/12 11:05:54;;;;;;;1999.90;999.90;;;;;;;10.10;100.00;99416.66;5097093;28;20031;-80
2022/11/12 11:08:34;;;;;;;1999.90;999.90;;;;;;;10.28;100.00;99416.34;5072767;28;20097;-80
2022/11/12 11:11:20;;;;;;;1999.90;999.90;;;;;;;10.86;100.00;99415.53;5109865;28;20424;-79
2022/11/12 11:13:47;;;;;;;1999.90;999.90;;;;;;;11.34;100.00;99425.47;5099810;28;20031;-75
2022/11/12 11:16:24;;;;;;;1999.90;999.90;;;;;;;11.37;100.00;99421.41;5099788;28;20032;-78
2022/11/12 11:18:57;;;;;;;1999.90;999.90;;;;;;;11.19;100.00;99415.25;5111728;28;20153;-76
2022/11/12 11:21:29;;;;;;;1999.90;999.90;;;;;;;11.34;100.00;99419.97;5097110;28;20088;-75